Sat 2017-12-16 13:31
Local weather stations in Arizona
KCGZ
Casa_Grande_Muni_Airport
Casa Grande, Casa Grande Municipal Airport, AZ, United States (KCGZ) 32-57N 111-46W
Sep 16, 2017 - 11:56 PM EDT / 2017.09.17 0356 UTC
Wind: from the W (270 degrees) at 8 MPH (7 KT):0
Visibility: 10 mile(s):0
Sky conditions: clear
Temperature: 84.9 F (29.4 C)
Dew Point: 46.9 F (8.3 C)
Relative Humidity: 26%
Pressure (altimeter): 29.83 in. Hg (1010 hPa)
ob: KCGZ 170356Z AUTO 27007KT 10SM CLR 29/08 A2983 RMK AO2 SLP086 T02940083 PNO 
cycle: 4
KRYN
Tucson/Ryan_Field
Station name not available
Dec 16, 2017 - 02:55 PM EST / 2017.12.16 1955 UTC
Wind: from the S (190 degrees) at 15 MPH (13 KT):0
Visibility: 10 mile(s):0
Sky conditions: clear
Temperature: 64 F (18 C)
Dew Point: 21 F (-6 C)
Relative Humidity: 18%
Pressure (altimeter): 29.8 in. Hg (1009 hPa)
ob: KRYN 161955Z 19013KT 10SM CLR 18/M06 A2980 
cycle: 20
KDMA
Tucson/Davis-Monthan-AFB
Davis-Monthan Air Force Base, AZ, United States (KDMA) 32-10N 110-53W
Dec 16, 2017 - 02:58 PM EST / 2017.12.16 1958 UTC
Wind: from the WSW (240 degrees) at 9 MPH (8 KT):0
Visibility: 10 mile(s):0
Sky conditions: partly cloudy
Temperature: 64.9 F (18.3 C)
Dew Point: 20.5 F (-6.4 C)
Relative Humidity: 18%
Pressure (altimeter): 29.78 in. Hg (1008 hPa)
ob: KDMA 161958Z AUTO 24008KT 10SM SCT150 SCT210 18/M06 A2978 RMK AO2 SLP063 T01831064 
cycle: 20
KOLS
Nogales-Intl_Airport
NOGALES INTERNATIONAL AIRPORT , AZ, United States (KOLS) 31-25N 110-51W 1184M
Dec 16, 2017 - 02:54 PM EST / 2017.12.16 1954 UTC
Wind: from the S (180 degrees) at 15 MPH (13 KT):0
Visibility: 10 mile(s):0
Sky conditions: clear
Temperature: 59.0 F (15.0 C)
Dew Point: 25.0 F (-3.9 C)
Relative Humidity: 26%
Pressure (altimeter): 29.84 in. Hg (1010 hPa)
ob: KOLS 161954Z AUTO 18013KT 10SM CLR 15/M04 A2984 RMK AO2 SLP079 T01501039
cycle: 20
KFHU
Fort-Huachuca
Fort Huachuca, Libby AAF Ft Huachuca, AZ, United States (KFHU) 46-98N 110-20W
Dec 16, 2017 - 02:58 PM EST / 2017.12.16 1958 UTC
Wind: from the SSW (210 degrees) at 14 MPH (12 KT) gusting to 22 MPH (19 KT):0
Visibility: 10 mile(s):0
Sky conditions: clear
Temperature: 59.4 F (15.2 C)
Dew Point: 15.8 F (-9.0 C)
Relative Humidity: 17%
Pressure (altimeter): 29.84 in. Hg (1010 hPa)
ob: KFHU 161958Z AUTO 21012G19KT 10SM CLR 15/M09 A2984 RMK AO2 SLP076 T01521090
cycle: 20
KSAD
Safford
SAFFORD MUNICIPAL AIRPORT, AZ, United States (KSAD) 32-51N 109-38W 962M
Dec 16, 2017 - 02:51 PM EST / 2017.12.16 1951 UTC
Wind: Variable at 3 MPH (3 KT):0
Visibility: 10 mile(s):0
Sky conditions: clear
Temperature: 53.1 F (11.7 C)
Dew Point: 19.9 F (-6.7 C)
Relative Humidity: 26%
Pressure (altimeter): 29.83 in. Hg (1010 hPa)
ob: KSAD 161951Z AUTO VRB03KT 10SM CLR 12/M07 A2983 RMK AO2 SLP087 T01171067
cycle: 20
KGBN
Gila_Bend
Gila Bend U. S. Army Airfield, AZ, United States (KGBN) 32-26N 112-41W 261M
Jul 20, 2017 - 10:57 AM EDT / 2017.07.20 1457 UTC
Wind: Calm:0
Visibility: 10 mile(s):0
Sky conditions: partly cloudy
Temperature: 86 F (30 C)
Dew Point: 68 F (20 C)
Relative Humidity: 55%
Pressure (altimeter): 29.97 in. Hg (1014 hPa)
ob: KGBN 201457Z 00000KT 10SM FEW100 SCT150 30/20 A2997 RMK A02 NO SLP
cycle: 15
KYUM
Yuma_Intl
Yuma / Yuma International, AZ, United States (KYUM) 32-39N 114-36W 63M
Nov 07, 2008 - 06:20 AM EST / 2008.11.07 1120 UTC
Wind: from the N (010 degrees) at 7 MPH (6 KT):0
Sky conditions: clear
ob: KYUM 071120Z 0712/0812 01006KT P6SM SKC FM071700 02012KT P6SM SKC FM080100 33005KT P6SM SKC
cycle: 11